createdAt,value
2022-11-20T00:05:00.033Z,85.1
2022-11-20T00:10:00.404Z,85.5
2022-11-20T00:14:59.896Z,85.2
2022-11-20T00:19:59.934Z,85
2022-11-20T00:25:00.021Z,84.4
2022-11-20T00:30:00.464Z,83.8
2022-11-20T00:35:00.384Z,84.1
2022-11-20T00:39:59.886Z,82.7
2022-11-20T00:44:59.918Z,83.8
2022-11-20T00:49:59.904Z,84.8
2022-11-20T00:54:59.851Z,86
2022-11-20T01:00:00.165Z,86
2022-11-20T01:05:00.090Z,85.5
2022-11-20T01:10:00.088Z,83.6
2022-11-20T01:14:59.960Z,82.2
2022-11-20T01:20:00.105Z,83.8
2022-11-20T01:25:00.058Z,84.9
2022-11-20T01:30:01.429Z,84.7
2022-11-20T01:35:00.017Z,85
2022-11-20T01:40:00.015Z,85.8
2022-11-20T01:45:00.029Z,85.6
2022-11-20T01:49:59.952Z,85.6
2022-11-20T01:54:59.977Z,85.8
2022-11-20T01:59:59.766Z,85.8
2022-11-20T02:04:59.891Z,86.2
2022-11-20T02:09:59.848Z,85.2
2022-11-20T02:14:59.974Z,86.1
2022-11-20T02:20:00.334Z,87.1
2022-11-20T02:24:59.766Z,88.5
2022-11-20T02:29:59.833Z,88.4
2022-11-20T02:34:59.742Z,87.9
2022-11-20T02:39:59.986Z,87.5
2022-11-20T02:45:00.007Z,87
2022-11-20T02:49:59.727Z,86.4
2022-11-20T02:55:00.046Z,85.9
2022-11-20T02:59:59.981Z,86.8
2022-11-20T03:04:59.665Z,86.7
2022-11-20T03:09:59.759Z,87.1
2022-11-20T03:15:00.000Z,87.9
2022-11-20T03:19:59.831Z,86.9
2022-11-20T03:24:59.857Z,87.3
2022-11-20T03:29:59.758Z,87.6
2022-11-20T03:34:59.697Z,86.4
2022-11-20T03:39:59.793Z,88.5
2022-11-20T03:44:59.905Z,88.5
2022-11-20T03:49:59.909Z,88.1
2022-11-20T03:55:00.087Z,88.7
2022-11-20T03:59:59.632Z,88.1
2022-11-20T04:04:59.764Z,84.9
2022-11-20T04:09:59.971Z,87.5
2022-11-20T04:14:59.811Z,88.2
2022-11-20T04:19:59.688Z,88.3
2022-11-20T04:24:59.606Z,88
2022-11-20T04:29:59.768Z,88.2
2022-11-20T04:34:59.904Z,88.6
2022-11-20T04:39:59.610Z,88.7
2022-11-20T04:44:59.817Z,88.8
2022-11-20T04:49:59.999Z,88.7
2022-11-20T04:54:59.642Z,88.3
2022-11-20T04:59:59.833Z,89.3
2022-11-20T05:04:59.599Z,42
2022-11-20T05:09:59.624Z,42
2022-11-20T05:14:59.693Z,42
2022-11-20T05:19:59.757Z,42
2022-11-20T05:24:59.778Z,42
2022-11-20T05:29:59.645Z,89.3
2022-11-20T05:34:59.712Z,42
2022-11-20T05:39:59.557Z,42
2022-11-20T05:44:59.604Z,89.5
2022-11-20T05:49:59.502Z,88.7
2022-11-20T05:54:59.530Z,42
2022-11-20T05:59:59.853Z,89.9
2022-11-20T06:04:59.795Z,89.4
2022-11-20T06:09:59.924Z,89.6
2022-11-20T06:14:59.853Z,89.9
2022-11-20T06:19:59.864Z,43
2022-11-20T06:24:59.832Z,43
2022-11-20T06:29:59.593Z,43
2022-11-20T06:34:59.445Z,43
2022-11-20T06:39:59.658Z,43
2022-11-20T06:44:59.833Z,43
2022-11-20T06:49:59.814Z,43
2022-11-20T06:54:59.659Z,43
2022-11-20T06:59:59.787Z,43
2022-11-20T07:04:59.532Z,43
2022-11-20T07:09:59.752Z,43
2022-11-20T07:14:59.691Z,43
2022-11-20T07:19:59.820Z,43
2022-11-20T07:24:59.666Z,43
2022-11-20T07:29:59.763Z,43
2022-11-20T07:34:59.686Z,43
2022-11-20T07:39:59.579Z,43
2022-11-20T07:44:59.780Z,44
2022-11-20T07:49:59.436Z,44
2022-11-20T07:54:59.490Z,44
2022-11-20T07:59:59.602Z,44
2022-11-20T08:04:59.694Z,43
2022-11-20T08:09:59.474Z,43
2022-11-20T08:14:59.674Z,43
2022-11-20T08:19:59.773Z,43
2022-11-20T08:24:59.757Z,43
2022-11-20T08:29:59.388Z,43
2022-11-20T08:34:59.499Z,43
2022-11-20T08:39:59.381Z,43
2022-11-20T08:44:59.583Z,43
2022-11-20T08:49:59.357Z,43
2022-11-20T08:54:59.354Z,43
2022-11-20T09:00:05.947Z,43
2022-11-20T09:04:59.309Z,43
2022-11-20T09:10:22.532Z,43
2022-11-20T09:14:59.639Z,43
2022-11-20T09:19:59.330Z,89.5
2022-11-20T09:24:59.672Z,89.6
2022-11-20T09:29:59.415Z,43
2022-11-20T09:39:59.372Z,88
2022-11-20T09:44:59.575Z,88.1
2022-11-20T09:49:59.588Z,89.2
2022-11-20T09:54:59.322Z,89.1
2022-11-20T09:59:59.402Z,43
2022-11-20T10:04:59.442Z,88.2
2022-11-20T10:09:59.531Z,89
2022-11-20T10:14:59.505Z,87.3
2022-11-20T10:19:59.466Z,88.1
2022-11-20T10:24:59.512Z,88.4
2022-11-20T10:29:59.561Z,88.4
2022-11-20T10:34:59.407Z,87
2022-11-20T10:39:59.358Z,88.6
2022-11-20T10:45:02.778Z,88.3
2022-11-20T10:49:59.513Z,88.4
2022-11-20T10:54:59.412Z,88.6
2022-11-20T10:59:59.328Z,88.6
2022-11-20T11:04:59.543Z,88.6
2022-11-20T11:09:59.266Z,89.3
2022-11-20T11:14:59.485Z,43
2022-11-20T11:19:59.190Z,43
2022-11-20T11:24:59.395Z,43
2022-11-20T11:29:59.266Z,44
2022-11-20T11:34:59.446Z,44
2022-11-20T11:40:22.791Z,44
2022-11-20T11:44:59.428Z,45
2022-11-20T11:49:59.131Z,45
2022-11-20T11:54:59.515Z,45
2022-11-20T11:59:59.330Z,45
2022-11-20T12:04:59.203Z,45
2022-11-20T12:09:59.438Z,45
2022-11-20T12:14:59.352Z,45
2022-11-20T12:19:59.351Z,45
2022-11-20T12:24:59.279Z,45
2022-11-20T12:29:59.390Z,49
2022-11-20T12:34:59.571Z,49
2022-11-20T12:39:59.195Z,49
2022-11-20T12:44:59.445Z,50
2022-11-20T12:49:59.529Z,50
2022-11-20T12:54:59.098Z,50
2022-11-20T12:59:59.149Z,50
2022-11-20T13:04:59.131Z,50
2022-11-20T13:09:59.895Z,50
2022-11-20T13:14:59.300Z,50
2022-11-20T13:19:59.323Z,50
2022-11-20T13:24:59.140Z,50
2022-11-20T13:30:00.884Z,50
2022-11-20T13:34:59.334Z,50
2022-11-20T13:39:59.426Z,50
2022-11-20T13:44:59.350Z,50
2022-11-20T13:49:59.235Z,50
2022-11-20T13:54:58.988Z,50
2022-11-20T13:59:59.421Z,53
2022-11-20T14:04:59.366Z,53
2022-11-20T14:09:59.280Z,53
2022-11-20T14:14:59.058Z,53
2022-11-20T14:19:59.261Z,54
2022-11-20T14:24:59.342Z,54
2022-11-20T14:30:00.739Z,54
2022-11-20T14:34:59.043Z,54
2022-11-20T14:39:59.026Z,55
2022-11-20T14:44:58.999Z,55
2022-11-20T14:49:59.080Z,55
2022-11-20T14:54:59.404Z,55
2022-11-20T14:59:59.338Z,56
2022-11-20T15:04:59.240Z,56
2022-11-20T15:09:59.703Z,56
2022-11-20T15:14:59.257Z,56
2022-11-20T15:19:58.970Z,57
2022-11-20T15:24:58.994Z,57
2022-11-20T15:29:59.010Z,57
2022-11-20T15:34:59.297Z,58
2022-11-20T15:39:59.350Z,58
2022-11-20T15:44:58.991Z,58
2022-11-20T15:49:59.315Z,59
2022-11-20T15:54:59.166Z,59
2022-11-20T15:59:58.972Z,59
2022-11-20T16:04:59.206Z,60
2022-11-20T16:09:59.231Z,60
2022-11-20T16:14:59.160Z,60
2022-11-20T16:19:59.230Z,60
2022-11-20T16:24:59.294Z,61
2022-11-20T16:29:59.111Z,61
2022-11-20T16:34:59.194Z,61
2022-11-20T16:39:59.076Z,61
2022-11-20T16:44:58.959Z,62
2022-11-20T16:49:59.016Z,62
2022-11-20T16:54:59.091Z,62
2022-11-20T17:00:02.324Z,62
2022-11-20T17:04:58.960Z,63
2022-11-20T17:09:59.033Z,63
2022-11-20T17:14:59.220Z,63
2022-11-20T17:19:59.033Z,63
2022-11-20T17:24:59.038Z,64
2022-11-20T17:29:58.868Z,64
2022-11-20T17:34:59.146Z,64
2022-11-20T17:39:59.143Z,64
2022-11-20T17:44:58.920Z,64
2022-11-20T17:50:00.523Z,65
2022-11-20T17:55:00.477Z,65
2022-11-20T18:00:00.538Z,65
2022-11-20T18:05:00.374Z,65
2022-11-20T18:10:00.484Z,65
2022-11-20T18:15:00.492Z,65
2022-11-20T18:20:27.417Z,65
2022-11-20T18:25:00.391Z,66
2022-11-20T18:30:00.599Z,66
2022-11-20T18:35:00.411Z,66
2022-11-20T18:40:00.464Z,66
2022-11-20T18:45:00.541Z,66
2022-11-20T18:50:00.482Z,66
2022-11-20T18:55:00.419Z,66
2022-11-20T19:00:06.495Z,66
2022-11-20T19:05:00.373Z,66
2022-11-20T19:10:03.686Z,66
2022-11-20T19:15:00.377Z,66
2022-11-20T19:20:00.502Z,67
2022-11-20T19:25:00.418Z,67
2022-11-20T19:30:00.382Z,67
2022-11-20T19:35:00.341Z,67
2022-11-20T19:40:00.414Z,67
2022-11-20T19:45:00.406Z,67
2022-11-20T19:50:00.438Z,67
2022-11-20T19:55:00.614Z,67
2022-11-20T20:00:00.536Z,67
2022-11-20T20:05:00.410Z,67
2022-11-20T20:10:00.172Z,67
2022-11-20T20:15:00.444Z,67
2022-11-20T20:20:00.494Z,67
2022-11-20T20:25:00.125Z,68
2022-11-20T20:30:00.402Z,68
2022-11-20T20:35:00.435Z,68
2022-11-20T20:40:00.407Z,68
2022-11-20T20:45:00.272Z,68
2022-11-20T20:50:00.382Z,68
2022-11-20T20:55:00.414Z,68
2022-11-20T21:00:00.349Z,68
2022-11-20T21:05:00.267Z,68
2022-11-20T21:10:00.387Z,68
2022-11-20T21:15:00.092Z,68
2022-11-20T21:20:00.389Z,68
2022-11-20T21:25:00.017Z,68
2022-11-20T21:30:00.335Z,68
2022-11-20T21:35:00.425Z,68
2022-11-20T21:40:00.039Z,68
2022-11-20T21:45:00.434Z,68
2022-11-20T21:50:00.516Z,68
2022-11-20T21:55:00.465Z,68
2022-11-20T22:00:00.194Z,68
2022-11-20T22:05:00.439Z,68
2022-11-20T22:10:00.121Z,69
2022-11-20T22:15:00.074Z,69
2022-11-20T22:20:00.522Z,69
2022-11-20T22:24:59.968Z,69
2022-11-20T22:30:00.096Z,69
2022-11-20T22:34:59.968Z,69
2022-11-20T22:40:00.191Z,69
2022-11-20T22:45:00.200Z,69
2022-11-20T22:50:00.419Z,69
2022-11-20T22:54:59.985Z,69
2022-11-20T23:00:00.319Z,69
2022-11-20T23:05:00.368Z,69
2022-11-20T23:10:00.200Z,69
2022-11-20T23:15:00.120Z,69
2022-11-20T23:19:59.888Z,69
2022-11-20T23:25:00.357Z,69
2022-11-20T23:30:00.057Z,69
2022-11-20T23:34:59.993Z,69
2022-11-20T23:40:00.161Z,69
2022-11-20T23:45:00.105Z,69
2022-11-20T23:49:59.885Z,69
2022-11-20T23:55:00.098Z,69
2022-11-20T23:59:59.983Z,69
